Time;durP1;ratioP1;P1;durP2;ratioP2;P2;SDS_P1;SDS_P2;PMS_P1;PMS_P2;Temp;Humidity;BMP_temperature;BMP_pressure;BME280_temperature;BME280_humidity;BME280_pressure;Samples;Min_cycle;Max_cycle;Signal;HPM_P1;HPM_P2
2023/09/12 00:00:48;;;;;;;5.22;3.42;;;22.80;59.30;;;;;;5027109;28;20106;-71
2023/09/12 00:03:13;;;;;;;3.58;3.00;;;22.60;60.80;;;;;;5027302;28;20052;-71
2023/09/12 00:05:40;;;;;;;4.17;2.77;;;22.60;60.30;;;;;;5026280;28;20505;-71
2023/09/12 00:08:06;;;;;;;11.48;3.33;;;22.50;60.20;;;;;;5026838;28;20112;-70
2023/09/12 00:10:31;;;;;;;3.85;3.33;;;22.40;64.70;;;;;;5020650;28;20033;-71
2023/09/12 00:12:58;;;;;;;4.57;3.33;;;22.40;62.50;;;;;;5017302;28;20048;-70
2023/09/12 00:15:24;;;;;;;3.83;3.13;;;22.30;62.60;;;;;;5026617;28;20022;-71
2023/09/12 00:17:49;;;;;;;5.33;2.97;;;22.10;63.90;;;;;;5025823;28;20668;-70
2023/09/12 00:20:15;;;;;;;4.70;3.20;;;22.20;65.30;;;;;;5027062;28;20123;-71
2023/09/12 00:22:40;;;;;;;3.57;2.67;;;22.20;67.10;;;;;;5027127;28;20025;-70
2023/09/12 00:25:06;;;;;;;4.60;4.03;;;22.10;65.10;;;;;;5027000;28;20120;-70
2023/09/12 00:27:32;;;;;;;4.25;3.20;;;22.20;60.90;;;;;;5009101;28;20032;-70
2023/09/12 00:29:57;;;;;;;6.67;3.17;;;22.40;63.70;;;;;;5007186;28;20045;-70
2023/09/12 00:32:23;;;;;;;4.07;3.53;;;22.30;64.00;;;;;;5016223;28;20022;-70
2023/09/12 00:34:49;;;;;;;4.43;3.33;;;22.20;64.70;;;;;;5027814;28;20051;-71
2023/09/12 00:37:14;;;;;;;4.80;3.47;;;21.90;64.70;;;;;;5027200;28;20029;-71
2023/09/12 00:39:40;;;;;;;7.00;4.17;;;22.00;63.90;;;;;;5026340;28;20393;-71
2023/09/12 00:42:07;;;;;;;7.07;3.70;;;22.10;62.20;;;;;;5026249;28;20041;-69
2023/09/12 00:44:33;;;;;;;4.20;3.35;;;22.20;60.60;;;;;;5026298;28;20033;-69
2023/09/12 00:47:01;;;;;;;7.47;4.07;;;22.30;61.10;;;;;;5026901;28;20065;-70
2023/09/12 00:49:28;;;;;;;5.95;3.42;;;22.20;61.00;;;;;;5026157;28;20030;-70
2023/09/12 00:51:56;;;;;;;5.35;3.20;;;22.20;60.30;;;;;;5025952;28;20405;-70
2023/09/12 00:54:22;;;;;;;6.85;3.25;;;22.20;60.60;;;;;;5026403;28;20052;-69
2023/09/12 00:56:48;;;;;;;4.70;3.60;;;22.10;61.20;;;;;;5025105;28;20505;-71
2023/09/12 00:59:16;;;;;;;7.33;3.60;;;22.10;61.80;;;;;;5025837;28;20075;-70
2023/09/12 01:01:42;;;;;;;5.63;3.60;;;21.90;62.70;;;;;;5008274;28;20855;-70
2023/09/12 01:04:09;;;;;;;4.18;3.20;;;22.10;62.00;;;;;;5006520;28;20025;-70
2023/09/12 01:06:34;;;;;;;4.68;3.38;;;22.00;61.90;;;;;;5006536;28;20511;-70
2023/09/12 01:09:00;;;;;;;7.07;3.53;;;22.10;62.20;;;;;;5006443;28;20165;-70
2023/09/12 01:11:28;;;;;;;8.07;4.00;;;22.10;61.40;;;;;;5007763;28;20042;-71
2023/09/12 01:13:53;;;;;;;8.07;3.30;;;22.10;62.20;;;;;;5026037;28;20022;-70
2023/09/12 01:16:19;;;;;;;6.30;4.50;;;22.10;62.60;;;;;;5025955;28;20611;-71
2023/09/12 01:18:45;;;;;;;5.93;3.20;;;22.00;63.70;;;;;;5025749;28;20029;-70
2023/09/12 01:21:24;;;;;;;;;;;21.90;64.60;;;;;;5027351;28;20065;-70
2023/09/12 01:24:16;;;;;;;6.55;3.50;;;21.80;64.50;;;;;;5029749;28;19905;-70
2023/09/12 01:26:59;;;;;;;4.65;3.17;;;21.70;64.90;;;;;;5029882;28;20452;-70
2023/09/12 01:29:26;;;;;;;8.38;3.40;;;21.70;65.00;;;;;;5028337;28;20444;-70
2023/09/12 01:31:53;;;;;;;8.32;4.15;;;21.70;66.00;;;;;;5029987;28;20061;-69
2023/09/12 01:34:19;;;;;;;6.20;3.28;;;21.60;67.10;;;;;;5029725;28;20030;-70
2023/09/12 01:36:44;;;;;;;4.83;3.60;;;21.60;67.20;;;;;;5029842;28;20520;-69
2023/09/12 01:39:10;;;;;;;6.67;4.53;;;21.50;66.60;;;;;;5028351;28;20061;-69
2023/09/12 01:41:40;;;;;;;6.78;3.05;;;21.50;67.00;;;;;;5029293;28;20033;-69
2023/09/12 01:44:07;;;;;;;4.50;3.30;;;21.50;65.30;;;;;;5029160;28;20026;-69
2023/09/12 01:46:35;;;;;;;4.22;3.13;;;21.40;64.70;;;;;;5029207;28;20041;-69
2023/09/12 01:49:04;;;;;;;4.45;3.30;;;21.40;66.10;;;;;;5029515;28;20025;-69
2023/09/12 01:51:30;;;;;;;5.88;3.40;;;21.50;65.80;;;;;;5029419;28;20044;-70
2023/09/12 01:53:56;;;;;;;5.25;3.67;;;21.30;67.70;;;;;;5029383;28;20029;-69
2023/09/12 01:56:23;;;;;;;5.90;3.88;;;21.20;66.90;;;;;;5029671;28;20068;-69
2023/09/12 01:58:48;;;;;;;4.70;3.60;;;21.20;67.60;;;;;;5029652;28;20021;-70
2023/09/12 02:01:14;;;;;;;7.53;3.40;;;21.10;69.90;;;;;;5029155;28;20051;-69
2023/09/12 02:03:40;;;;;;;4.47;3.70;;;21.00;72.40;;;;;;5028939;28;20025;-70
2023/09/12 02:06:05;;;;;;;3.83;3.30;;;20.90;68.50;;;;;;5029252;28;20803;-69
2023/09/12 02:08:31;;;;;;;4.43;3.10;;;20.90;68.60;;;;;;5029358;28;20056;-70
2023/09/12 02:10:56;;;;;;;6.13;3.63;;;20.90;67.20;;;;;;5028545;28;20036;-70
2023/09/12 02:13:22;;;;;;;13.23;3.57;;;21.10;66.90;;;;;;5029308;28;20092;-69
2023/09/12 02:15:47;;;;;;;12.47;3.70;;;20.90;70.90;;;;;;5030087;28;20037;-69
2023/09/12 02:18:13;;;;;;;4.73;3.60;;;21.00;69.20;;;;;;5029681;28;20068;-69
2023/09/12 02:20:41;;;;;;;6.32;3.33;;;21.00;68.70;;;;;;5029273;28;20041;-70
2023/09/12 02:23:07;;;;;;;9.32;3.53;;;21.00;69.30;;;;;;5029071;28;20116;-69
2023/09/12 02:25:32;;;;;;;5.38;3.72;;;21.00;65.70;;;;;;5028588;28;20125;-68
2023/09/12 02:27:58;;;;;;;8.47;3.60;;;21.00;68.70;;;;;;5028729;28;20045;-70
2023/09/12 02:30:24;;;;;;;4.33;3.20;;;20.90;69.50;;;;;;5028921;28;20146;-71
2023/09/12 02:32:49;;;;;;;6.23;3.20;;;20.90;69.60;;;;;;5029346;28;20037;-71
2023/09/12 02:35:15;;;;;;;4.57;3.20;;;20.90;66.50;;;;;;5028836;28;20493;-70
2023/09/12 02:37:40;;;;;;;5.83;3.47;;;21.20;64.50;;;;;;5028726;28;20030;-70
2023/09/12 02:40:07;;;;;;;6.03;2.80;;;21.10;64.00;;;;;;5028624;28;20056;-71
2023/09/12 02:42:32;;;;;;;6.47;3.33;;;21.00;66.50;;;;;;5028035;28;20037;-70
2023/09/12 02:44:58;;;;;;;6.63;3.40;;;21.20;62.10;;;;;;5028326;28;20711;-71
2023/09/12 02:47:23;;;;;;;7.00;3.37;;;21.10;64.10;;;;;;5028810;28;20351;-70
2023/09/12 02:49:49;;;;;;;6.20;3.20;;;21.00;63.30;;;;;;5028702;28;20075;-70
2023/09/12 02:52:15;;;;;;;5.40;3.30;;;21.10;62.10;;;;;;5028151;28;20100;-70
2023/09/12 02:54:40;;;;;;;4.00;3.07;;;21.20;65.90;;;;;;5028441;28;20083;-70
2023/09/12 02:57:06;;;;;;;3.20;2.83;;;21.00;67.30;;;;;;5028560;28;20068;-70
2023/09/12 02:59:31;;;;;;;8.60;3.27;;;20.90;68.70;;;;;;5028220;28;20037;-70
2023/09/12 03:01:57;;;;;;;3.13;2.77;;;20.70;67.60;;;;;;5026906;28;20519;-70
2023/09/12 03:04:26;;;;;;;3.93;3.07;;;20.90;62.70;;;;;;5028084;28;20025;-70
2023/09/12 03:06:51;;;;;;;3.58;2.38;;;21.00;62.00;;;;;;5028868;28;20069;-71
2023/09/12 03:09:19;;;;;;;4.37;2.77;;;21.00;62.30;;;;;;5027757;28;20061;-70
2023/09/12 03:11:45;;;;;;;5.30;3.28;;;21.10;63.90;;;;;;5027834;28;20033;-71
2023/09/12 03:14:10;;;;;;;4.37;2.90;;;21.00;66.40;;;;;;5027673;28;20052;-71
2023/09/12 03:16:37;;;;;;;5.13;2.87;;;20.90;64.70;;;;;;5027609;28;20095;-70
2023/09/12 03:19:03;;;;;;;4.47;2.95;;;20.90;64.50;;;;;;5027804;28;20412;-70
2023/09/12 03:21:29;;;;;;;4.40;3.00;;;20.80;67.70;;;;;;5027349;28;20116;-70
2023/09/12 03:23:54;;;;;;;3.57;2.97;;;20.90;65.00;;;;;;5027861;28;20173;-71
2023/09/12 03:26:20;;;;;;;4.97;2.93;;;20.80;67.70;;;;;;5027728;28;20296;-71
2023/09/12 03:28:45;;;;;;;3.33;2.57;;;20.90;62.70;;;;;;5027155;28;20080;-71
2023/09/12 03:31:13;;;;;;;13.67;3.13;;;21.20;61.70;;;;;;5025877;28;20036;-71
2023/09/12 03:33:40;;;;;;;8.20;3.17;;;21.30;61.20;;;;;;5009930;28;20100;-71
2023/09/12 03:36:06;;;;;;;4.47;2.65;;;21.30;62.60;;;;;;5006399;28;20033;-71
2023/09/12 03:38:33;;;;;;;5.55;2.83;;;21.10;64.50;;;;;;5007524;28;20042;-71
2023/09/12 03:40:58;;;;;;;4.63;2.83;;;21.00;62.60;;;;;;5020217;28;20112;-69
2023/09/12 03:43:24;;;;;;;5.40;3.50;;;20.90;65.60;;;;;;5019866;28;20124;-69
2023/09/12 03:45:50;;;;;;;5.70;2.80;;;20.90;66.50;;;;;;5006926;28;20042;-69
2023/09/12 03:48:16;;;;;;;4.07;3.23;;;21.00;65.90;;;;;;5007804;28;20500;-70
2023/09/12 03:50:41;;;;;;;4.63;2.93;;;20.80;67.70;;;;;;5008051;28;20036;-69
2023/09/12 03:53:07;;;;;;;10.37;3.47;;;20.80;67.30;;;;;;5007574;28;20026;-70
2023/09/12 03:55:32;;;;;;;7.37;3.60;;;20.70;66.00;;;;;;5008260;28;20030;-70
2023/09/12 03:57:58;;;;;;;6.00;3.30;;;20.80;65.00;;;;;;5008255;28;20449;-70
2023/09/12 04:00:24;;;;;;;5.53;3.33;;;20.60;63.40;;;;;;5008148;28;20030;-69
2023/09/12 04:02:49;;;;;;;4.43;2.67;;;20.70;66.30;;;;;;5007284;28;20473;-70
2023/09/12 04:05:15;;;;;;;4.20;2.83;;;20.80;63.90;;;;;;5007843;28;20088;-69
2023/09/12 04:07:40;;;;;;;7.07;3.30;;;20.90;61.80;;;;;;5007836;28;20026;-70
2023/09/12 04:10:06;;;;;;;4.10;2.80;;;21.00;61.90;;;;;;5009147;28;20037;-70
2023/09/12 04:12:32;;;;;;;8.23;3.60;;;21.00;61.40;;;;;;5011900;28;20033;-70
2023/09/12 04:14:57;;;;;;;4.50;2.90;;;20.90;62.30;;;;;;5026270;28;20112;-70
2023/09/12 04:17:23;;;;;;;4.30;2.92;;;20.80;63.30;;;;;;5027351;28;20409;-69
2023/09/12 04:19:49;;;;;;;4.80;2.85;;;20.90;63.70;;;;;;5026909;28;20030;-70
2023/09/12 04:22:14;;;;;;;6.20;3.20;;;20.80;64.80;;;;;;5026683;28;20101;-71
2023/09/12 04:24:41;;;;;;;5.63;2.90;;;20.90;62.70;;;;;;5026363;28;20025;-70
2023/09/12 04:27:06;;;;;;;4.43;2.55;;;21.00;61.90;;;;;;5026193;28;20457;-70
2023/09/12 04:29:35;;;;;;;7.07;3.50;;;21.00;65.40;;;;;;5019183;28;20088;-70
2023/09/12 04:32:03;;;;;;;6.70;3.42;;;21.10;61.30;;;;;;5006283;28;20033;-71
2023/09/12 04:34:29;;;;;;;8.52;3.63;;;21.10;61.90;;;;;;5007160;28;20156;-71
2023/09/12 04:36:54;;;;;;;9.25;3.72;;;21.10;61.60;;;;;;5007286;28;20029;-71
2023/09/12 04:39:20;;;;;;;6.10;3.57;;;20.90;61.90;;;;;;5006460;28;20436;-71
2023/09/12 04:41:46;;;;;;;5.67;3.03;;;20.70;63.50;;;;;;5025667;28;20037;-70
2023/09/12 04:44:12;;;;;;;7.00;3.50;;;20.60;63.80;;;;;;5017485;28;20040;-71
2023/09/12 04:46:37;;;;;;;8.90;3.20;;;20.50;66.80;;;;;;5017551;28;20037;-70
2023/09/12 04:49:03;;;;;;;10.37;3.00;;;20.40;64.80;;;;;;5014141;28;20044;-71
2023/09/12 04:51:29;;;;;;;7.80;3.17;;;20.50;64.40;;;;;;5021175;28;20080;-71
2023/09/12 04:53:54;;;;;;;5.50;3.20;;;20.60;67.10;;;;;;5019228;28;20030;-70
2023/09/12 04:56:20;;;;;;;5.13;3.30;;;20.40;68.10;;;;;;5013487;28;20025;-71
2023/09/12 04:58:46;;;;;;;4.72;3.33;;;20.50;67.10;;;;;;5021051;28;20030;-70
2023/09/12 05:01:12;;;;;;;9.32;3.63;;;20.40;67.30;;;;;;5025534;28;20046;-70
2023/09/12 05:03:38;;;;;;;4.95;3.42;;;20.40;68.80;;;;;;5022907;28;20097;-70
2023/09/12 05:06:03;;;;;;;3.97;3.43;;;20.40;66.80;;;;;;5026704;28;20049;-70
2023/09/12 05:08:29;;;;;;;5.07;3.40;;;20.60;65.00;;;;;;5020214;28;20033;-70
2023/09/12 05:10:55;;;;;;;6.65;3.83;;;20.70;64.90;;;;;;5024567;28;20300;-70
2023/09/12 05:13:20;;;;;;;6.53;3.47;;;20.60;70.80;;;;;;5022837;28;20329;-70
2023/09/12 05:15:46;;;;;;;11.20;4.20;;;20.50;70.30;;;;;;5018418;28;20075;-69
2023/09/12 05:18:12;;;;;;;9.40;3.65;;;20.80;66.70;;;;;;5023813;28;20055;-70
2023/09/12 05:20:38;;;;;;;6.77;3.27;;;21.20;63.80;;;;;;5017686;28;20498;-70
2023/09/12 05:23:03;;;;;;;5.17;3.50;;;21.00;65.20;;;;;;5022037;28;20091;-69
2023/09/12 05:25:30;;;;;;;4.90;3.20;;;21.10;64.00;;;;;;5021818;28;20545;-70
2023/09/12 05:27:56;;;;;;;6.38;3.80;;;20.90;67.10;;;;;;5021697;28;20034;-71
2023/09/12 05:30:22;;;;;;;6.03;3.47;;;20.90;67.50;;;;;;5023392;28;20787;-70
2023/09/12 05:32:47;;;;;;;9.02;3.67;;;21.00;65.60;;;;;;5018833;28;20028;-71
2023/09/12 05:35:13;;;;;;;6.00;3.57;;;21.10;65.00;;;;;;5017101;28;20025;-71
2023/09/12 05:37:39;;;;;;;4.17;3.60;;;21.10;64.90;;;;;;5018921;28;20034;-73
2023/09/12 05:40:06;;;;;;;7.90;4.40;;;21.10;65.60;;;;;;5016191;28;20038;-70
2023/09/12 05:42:32;;;;;;;7.05;3.50;;;21.20;64.60;;;;;;5019137;28;20398;-72
2023/09/12 05:44:57;;;;;;;9.88;4.10;;;21.20;64.20;;;;;;5015626;28;20502;-71
2023/09/12 05:47:23;;;;;;;7.50;4.13;;;21.30;63.70;;;;;;4998369;28;20038;-73
2023/09/12 05:49:49;;;;;;;7.00;3.40;;;21.20;64.80;;;;;;5013888;28;20034;-73
2023/09/12 05:52:15;;;;;;;5.72;3.75;;;21.20;67.40;;;;;;5021967;28;20037;-72
2023/09/12 05:54:42;;;;;;;7.97;3.80;;;21.20;65.60;;;;;;5015223;28;20044;-72
2023/09/12 05:57:09;;;;;;;10.02;3.83;;;21.20;67.20;;;;;;5018219;28;20042;-70
2023/09/12 05:59:39;;;;;;;5.10;3.38;;;21.20;67.60;;;;;;5018129;28;20030;-75
2023/09/12 06:02:06;;;;;;;6.28;3.40;;;21.30;67.50;;;;;;5015772;28;20583;-75
2023/09/12 06:04:32;;;;;;;5.10;4.03;;;21.20;67.60;;;;;;5022723;28;20102;-72
2023/09/12 06:06:59;;;;;;;10.07;3.65;;;21.20;66.70;;;;;;5021346;28;20036;-73
2023/09/12 06:09:25;;;;;;;9.73;4.15;;;21.30;64.80;;;;;;5012274;28;20040;-72
2023/09/12 06:11:51;;;;;;;9.00;3.65;;;21.30;67.60;;;;;;5022278;28;20049;-72
2023/09/12 06:14:16;;;;;;;8.13;3.87;;;21.20;66.40;;;;;;5021907;28;20032;-74
2023/09/12 06:16:42;;;;;;;8.07;3.55;;;21.10;67.60;;;;;;5021038;28;20026;-74
2023/09/12 06:19:11;;;;;;;8.53;3.83;;;21.20;67.40;;;;;;5014128;28;20063;-71
2023/09/12 06:21:36;;;;;;;6.20;3.72;;;21.20;68.10;;;;;;5021149;28;20037;-72
2023/09/12 06:24:10;;;;;;;6.20;4.03;;;21.20;73.20;;;;;;5017179;28;20045;-75
2023/09/12 06:26:35;;;;;;;5.97;3.70;;;21.20;73.60;;;;;;5017982;28;20448;-74
2023/09/12 06:29:02;;;;;;;8.20;3.83;;;21.30;68.90;;;;;;5017050;28;20128;-74
2023/09/12 06:31:28;;;;;;;6.57;3.20;;;21.30;69.30;;;;;;5015217;28;20041;-74
2023/09/12 06:33:54;;;;;;;7.07;3.55;;;21.30;64.70;;;;;;5016813;28;20437;-70
2023/09/12 06:36:20;;;;;;;5.03;3.50;;;21.40;64.80;;;;;;5016019;28;20037;-70
2023/09/12 06:38:45;;;;;;;6.73;3.20;;;21.50;71.90;;;;;;5016767;28;20026;-69
2023/09/12 06:41:11;;;;;;;6.60;3.07;;;21.40;65.60;;;;;;5021738;28;20373;-70
2023/09/12 06:43:36;;;;;;;7.40;2.65;;;21.60;66.90;;;;;;5022644;28;20087;-71
2023/09/12 06:46:02;;;;;;;6.07;2.80;;;21.70;62.40;;;;;;5012087;28;20042;-69
2023/09/12 06:48:28;;;;;;;7.25;2.97;;;21.80;63.90;;;;;;5019722;28;20063;-70
2023/09/12 06:50:57;;;;;;;3.77;2.40;;;21.70;63.70;;;;;;5016731;28;20042;-70
2023/09/12 06:53:22;;;;;;;3.42;2.80;;;21.80;62.40;;;;;;5015232;28;20030;-71
2023/09/12 06:55:48;;;;;;;5.07;2.43;;;21.80;63.50;;;;;;5016684;28;20439;-72
2023/09/12 06:58:14;;;;;;;4.57;2.90;;;21.80;62.10;;;;;;5013493;28;20030;-83
2023/09/12 07:00:39;;;;;;;5.80;3.07;;;21.90;62.10;;;;;;5015516;28;20506;-73
2023/09/12 07:03:05;;;;;;;7.47;2.90;;;22.00;64.20;;;;;;5018882;28;20041;-70
2023/09/12 07:05:30;;;;;;;7.68;2.83;;;22.00;62.90;;;;;;5019937;28;20057;-72
2023/09/12 07:07:57;;;;;;;4.27;2.80;;;21.90;63.60;;;;;;5016531;28;20049;-76
2023/09/12 07:10:23;;;;;;;10.02;3.10;;;22.00;61.70;;;;;;5012791;28;20433;-77
2023/09/12 07:12:49;;;;;;;5.78;3.28;;;22.10;62.30;;;;;;5011301;28;20444;-76
2023/09/12 07:15:14;;;;;;;6.55;2.63;;;22.10;61.00;;;;;;5017379;28;20042;-69
2023/09/12 07:17:40;;;;;;;9.50;2.87;;;21.90;62.50;;;;;;5015609;28;20112;-69
2023/09/12 07:20:11;;;;;;;3.83;2.63;;;22.00;62.20;;;;;;5013480;28;20053;-70
2023/09/12 07:22:39;;;;;;;5.20;3.00;;;22.10;65.20;;;;;;5016930;28;20033;-69
2023/09/12 07:25:05;;;;;;;4.70;2.83;;;22.20;61.20;;;;;;5010223;28;20145;-70
2023/09/12 07:27:31;;;;;;;6.43;2.97;;;22.20;62.20;;;;;;5011640;28;20049;-70
2023/09/12 07:29:56;;;;;;;3.22;2.58;;;22.30;62.00;;;;;;5015640;28;20046;-69
2023/09/12 07:32:22;;;;;;;4.73;2.87;;;22.40;60.00;;;;;;5013507;28;20667;-70
2023/09/12 07:34:48;;;;;;;7.80;2.85;;;22.50;60.50;;;;;;5015385;28;20512;-70
2023/09/12 07:37:14;;;;;;;7.60;2.78;;;22.80;60.30;;;;;;5017500;28;20505;-69
2023/09/12 07:39:40;;;;;;;6.30;2.85;;;22.80;60.90;;;;;;5013958;28;20025;-70
2023/09/12 07:42:05;;;;;;;5.27;2.77;;;22.70;61.40;;;;;;5013903;28;20072;-69
2023/09/12 07:44:31;;;;;;;6.35;2.88;;;22.60;61.30;;;;;;5011824;28;20033;-70
2023/09/12 07:46:56;;;;;;;8.27;3.03;;;22.80;60.90;;;;;;5016056;28;20433;-70
2023/09/12 07:49:25;;;;;;;4.67;2.80;;;22.80;59.30;;;;;;5011038;28;20412;-67
2023/09/12 07:51:51;;;;;;;4.40;2.63;;;22.80;61.40;;;;;;5011466;28;20595;-69
2023/09/12 07:54:17;;;;;;;4.43;2.40;;;22.70;61.70;;;;;;5017561;28;20033;-70
2023/09/12 07:56:43;;;;;;;5.93;2.33;;;22.80;61.70;;;;;;5019874;28;20026;-68
2023/09/12 07:59:10;;;;;;;6.53;2.75;;;22.90;60.30;;;;;;5015875;28;20049;-70
2023/09/12 08:01:36;;;;;;;5.68;2.80;;;22.80;62.60;;;;;;5018766;28;20061;-70
2023/09/12 08:04:02;;;;;;;8.23;3.07;;;22.70;61.00;;;;;;5012613;28;20115;-71
2023/09/12 08:06:28;;;;;;;6.13;2.55;;;22.80;62.00;;;;;;5018883;28;20048;-69
2023/09/12 08:08:54;;;;;;;3.67;2.40;;;22.90;63.50;;;;;;5017433;28;20033;-69
2023/09/12 08:11:20;;;;;;;3.13;2.17;;;23.10;61.20;;;;;;5015624;28;20080;-69
2023/09/12 08:13:49;;;;;;;3.30;2.40;;;23.30;62.30;;;;;;5014388;28;20119;-69
2023/09/12 08:16:15;;;;;;;7.13;2.53;;;23.40;60.30;;;;;;5016129;28;21011;-70
2023/09/12 08:18:41;;;;;;;3.47;2.47;;;23.40;60.50;;;;;;5013977;28;20041;-68
2023/09/12 08:21:06;;;;;;;5.65;2.50;;;23.50;60.80;;;;;;5016025;28;20099;-69
2023/09/12 08:23:32;;;;;;;3.77;2.60;;;23.50;59.10;;;;;;5014735;28;20061;-70
2023/09/12 08:25:58;;;;;;;6.22;2.40;;;23.70;59.60;;;;;;5018283;28;20057;-69
2023/09/12 08:28:23;;;;;;;4.07;2.70;;;23.80;58.80;;;;;;5019021;28;20041;-70
2023/09/12 08:30:49;;;;;;;6.83;2.20;;;24.10;63.00;;;;;;5018924;28;20041;-68
2023/09/12 08:33:15;;;;;;;4.03;2.17;;;24.40;62.60;;;;;;5018316;28;20040;-71
2023/09/12 08:35:41;;;;;;;4.07;2.67;;;24.20;62.90;;;;;;5012029;28;20425;-67
2023/09/12 08:38:06;;;;;;;5.93;3.17;;;26.10;60.20;;;;;;5012643;28;20566;-69
2023/09/12 08:40:36;;;;;;;2.75;2.25;;;28.80;59.10;;;;;;5018987;28;20498;-75
2023/09/12 08:43:05;;;;;;;3.15;1.92;;;27.20;53.70;;;;;;5014436;28;20077;-75
2023/09/12 08:45:30;;;;;;;3.65;2.40;;;26.50;55.80;;;;;;5016013;28;20050;-74
2023/09/12 08:48:00;;;;;;;7.07;2.38;;;27.00;55.70;;;;;;5012956;28;20531;-73
2023/09/12 08:50:30;;;;;;;3.15;2.75;;;27.50;58.10;;;;;;5015418;28;20022;-74
2023/09/12 08:52:56;;;;;;;2.45;2.20;;;27.60;56.20;;;;;;5029235;28;20036;-74
2023/09/12 08:55:22;;;;;;;10.00;2.10;;;27.80;58.40;;;;;;5014240;28;20125;-75
2023/09/12 08:57:50;;;;;;;3.80;2.20;;;26.70;55.50;;;;;;5013742;28;20155;-74
2023/09/12 09:00:16;;;;;;;4.38;2.13;;;26.40;57.10;;;;;;5017268;28;20497;-74
2023/09/12 09:02:43;;;;;;;2.63;2.40;;;25.90;57.90;;;;;;5011297;28;20046;-74
2023/09/12 09:05:10;;;;;;;9.90;3.42;;;26.70;57.90;;;;;;5014322;28;20045;-74
2023/09/12 09:07:41;;;;;;;4.88;2.90;;;28.80;56.50;;;;;;5011288;28;20055;-74
2023/09/12 09:10:10;;;;;;;5.82;2.70;;;29.90;54.20;;;;;;5013877;28;20025;-75
2023/09/12 09:12:39;;;;;;;3.92;2.17;;;30.60;53.90;;;;;;5019961;28;20409;-73
2023/09/12 09:15:23;;;;;;;4.18;2.28;;;30.70;56.40;;;;;;5014721;28;20594;-74
2023/09/12 09:17:50;;;;;;;3.67;2.47;;;30.30;52.50;;;;;;5014384;28;20640;-74
2023/09/12 09:20:31;;;;;;;2.40;2.20;;;30.50;52.50;;;;;;5015783;28;20066;-75
2023/09/12 09:23:05;;;;;;;5.95;2.75;;;31.20;52.70;;;;;;5013168;28;20029;-73
2023/09/12 09:25:31;;;;;;;6.53;2.90;;;31.50;55.90;;;;;;5014256;28;20045;-74
2023/09/12 09:27:57;;;;;;;2.83;2.35;;;31.50;52.20;;;;;;5025907;28;20036;-74
2023/09/12 09:30:42;;;;;;;3.40;2.80;;;31.90;53.30;;;;;;5016044;28;20406;-75
2023/09/12 09:33:09;;;;;;;5.53;2.60;;;32.00;53.20;;;;;;5015195;28;20025;-74
2023/09/12 09:35:35;;;;;;;6.20;2.80;;;32.10;53.80;;;;;;5009836;28;20030;-76
2023/09/12 09:38:02;;;;;;;5.85;2.90;;;31.60;52.80;;;;;;5013812;28;20038;-75
2023/09/12 09:40:28;;;;;;;5.10;3.45;;;31.60;52.80;;;;;;5017411;28;20030;-71
2023/09/12 09:43:01;;;;;;;4.40;3.38;;;30.90;53.50;;;;;;5016170;28;20286;-70
2023/09/12 09:45:31;;;;;;;5.03;3.28;;;30.90;53.20;;;;;;5018273;28;20037;-70
2023/09/12 09:48:04;;;;;;;9.48;3.55;;;31.10;53.20;;;;;;5018366;28;20577;-67
2023/09/12 09:50:30;;;;;;;3.38;3.08;;;31.20;54.20;;;;;;5014529;28;20161;-69
2023/09/12 09:52:57;;;;;;;5.05;3.00;;;31.70;51.80;;;;;;5014145;28;20495;-69
2023/09/12 09:55:23;;;;;;;3.35;2.45;;;32.10;52.10;;;;;;5020882;28;20037;-70
2023/09/12 09:57:51;;;;;;;5.82;3.00;;;32.00;52.60;;;;;;5015964;28;20033;-72
2023/09/12 10:00:19;;;;;;;5.88;3.05;;;31.40;52.80;;;;;;5012793;28;20032;-69
2023/09/12 10:02:47;;;;;;;4.90;2.90;;;31.80;53.20;;;;;;5021005;28;20036;-70
2023/09/12 10:05:14;;;;;;;9.25;4.10;;;31.50;53.20;;;;;;5017946;28;20037;-72
2023/09/12 10:07:41;;;;;;;19.63;9.55;;;31.10;53.30;;;;;;5021677;28;20044;-70
2023/09/12 10:10:08;;;;;;;24.85;8.57;;;31.50;52.70;;;;;;5015757;28;20708;-69
2023/09/12 10:12:36;;;;;;;8.68;3.97;;;32.00;51.60;;;;;;5014916;28;20036;-70
2023/09/12 10:15:04;;;;;;;9.60;3.95;;;32.30;52.30;;;;;;5018488;28;20180;-69
2023/09/12 10:17:38;;;;;;;10.00;3.78;;;32.20;51.40;;;;;;5022763;28;20116;-68
2023/09/12 10:20:09;;;;;;;6.03;3.83;;;31.70;52.50;;;;;;5016966;28;20026;-68
2023/09/12 10:22:43;;;;;;;8.15;3.22;;;32.10;51.20;;;;;;5014479;28;20132;-68
2023/09/12 10:25:09;;;;;;;9.25;2.90;;;32.10;49.70;;;;;;5019546;28;20029;-68
2023/09/12 10:27:35;;;;;;;6.10;2.80;;;31.40;50.30;;;;;;5020416;28;20034;-69
2023/09/12 10:30:02;;;;;;;3.25;2.95;;;31.20;52.70;;;;;;5019253;28;20045;-69
2023/09/12 10:32:30;;;;;;;3.42;2.63;;;31.10;52.70;;;;;;5021190;28;20041;-68
2023/09/12 10:34:58;;;;;;;3.70;2.90;;;31.00;54.60;;;;;;5017979;28;20509;-68
2023/09/12 10:37:25;;;;;;;10.45;3.60;;;30.30;54.50;;;;;;5023239;28;20068;-68
2023/09/12 10:39:53;;;;;;;7.55;3.20;;;30.30;53.40;;;;;;5018436;28;20026;-68
2023/09/12 10:42:21;;;;;;;6.03;3.13;;;30.20;53.30;;;;;;5018443;28;20037;-68
2023/09/12 10:44:46;;;;;;;5.47;2.75;;;30.10;54.20;;;;;;5015331;28;20042;-68
2023/09/12 10:47:13;;;;;;;;;;;30.00;52.40;;;;;;5014482;28;20041;-70
2023/09/12 10:49:43;;;;;;;14.57;3.75;;;29.50;51.20;;;;;;5017263;28;20012;-68
2023/09/12 10:52:08;;;;;;;14.48;3.10;;;29.20;52.20;;;;;;5016061;28;20033;-69
2023/09/12 10:54:40;;;;;;;10.45;3.28;;;28.80;53.10;;;;;;5021520;28;20041;-71
2023/09/12 10:57:08;;;;;;;5.20;3.30;;;28.80;53.10;;;;;;5014374;28;20814;-71
2023/09/12 10:59:36;;;;;;;5.45;2.50;;;28.90;53.10;;;;;;5017930;28;20512;-70
2023/09/12 11:02:30;;;;;;;9.63;3.15;;;29.00;52.40;;;;;;5019745;28;20052;-69
2023/09/12 11:05:00;;;;;;;10.98;2.50;;;28.90;53.20;;;;;;5018908;28;20051;-73
2023/09/12 11:07:38;;;;;;;3.13;2.60;;;28.90;53.10;;;;;;5014940;28;20034;-69
2023/09/12 11:10:16;;;;;;;4.50;2.67;;;28.80;53.30;;;;;;5014728;28;20030;-69
2023/09/12 11:12:43;;;;;;;4.00;3.08;;;28.60;53.70;;;;;;5018718;28;20038;-70
2023/09/12 11:15:13;;;;;;;7.95;2.75;;;28.50;53.30;;;;;;5018205;28;20033;-74
2023/09/12 11:17:39;;;;;;;6.40;3.00;;;28.50;54.10;;;;;;5016537;28;20026;-71
2023/09/12 11:20:10;;;;;;;3.25;2.78;;;28.60;54.00;;;;;;5015192;28;20164;-70
2023/09/12 11:22:39;;;;;;;3.22;2.67;;;28.70;55.40;;;;;;5017600;28;20025;-72
2023/09/12 11:25:17;;;;;;;6.50;2.63;;;28.70;54.20;;;;;;5013644;28;20029;-71
2023/09/12 11:28:04;;;;;;;8.00;2.63;;;28.70;54.20;;;;;;5014704;28;20029;-69
2023/09/12 11:30:31;;;;;;;8.10;3.05;;;28.70;53.80;;;;;;5016194;28;20036;-69
2023/09/12 11:32:58;;;;;;;7.55;2.75;;;28.80;53.30;;;;;;5015967;28;20533;-74
2023/09/12 11:35:29;;;;;;;4.55;3.05;;;28.80;53.00;;;;;;5016987;28;20297;-76
2023/09/12 11:37:59;;;;;;;2.83;2.38;;;28.70;55.60;;;;;;5015023;28;20331;-70
2023/09/12 11:40:45;;;;;;;5.25;2.70;;;28.70;57.00;;;;;;5019066;28;20269;-71
2023/09/12 11:43:24;;;;;;;5.93;3.40;;;28.80;55.60;;;;;;5019990;28;20030;-69
2023/09/12 11:45:51;;;;;;;5.75;2.80;;;28.90;54.40;;;;;;5012993;28;20660;-72
2023/09/12 11:48:18;;;;;;;5.70;2.85;;;28.90;55.80;;;;;;5014263;28;20112;-74
2023/09/12 11:50:50;;;;;;;5.80;2.90;;;28.90;55.50;;;;;;5017728;28;20030;-69
2023/09/12 11:53:21;;;;;;;3.65;2.45;;;28.90;55.90;;;;;;5017813;28;20044;-69
2023/09/12 11:55:51;;;;;;;4.40;2.83;;;29.00;59.40;;;;;;5016108;28;20044;-69
2023/09/12 11:58:22;;;;;;;5.53;2.78;;;29.20;59.20;;;;;;5016694;28;20040;-72
2023/09/12 12:00:49;;;;;;;6.72;3.50;;;29.20;57.90;;;;;;5010878;28;20060;-69
2023/09/12 12:03:16;;;;;;;5.32;2.72;;;29.30;57.00;;;;;;5011970;28;20029;-68
2023/09/12 12:05:42;;;;;;;5.35;2.50;;;29.30;54.00;;;;;;5012000;28;20045;-68
2023/09/12 12:08:09;;;;;;;4.75;2.65;;;29.50;53.90;;;;;;5015206;28;20461;-69
2023/09/12 12:10:38;;;;;;;2.65;2.38;;;29.50;55.40;;;;;;5013253;28;20040;-68
2023/09/12 12:13:03;;;;;;;3.72;2.72;;;29.60;56.10;;;;;;5013426;28;20038;-68
2023/09/12 12:15:29;;;;;;;4.30;2.50;;;29.60;58.10;;;;;;5014765;28;20049;-68
2023/09/12 12:17:55;;;;;;;12.82;2.90;;;29.40;54.10;;;;;;5011085;28;20030;-68
2023/09/12 12:20:22;;;;;;;8.38;3.42;;;29.10;55.80;;;;;;5021313;28;20026;-70
2023/09/12 12:22:48;;;;;;;9.38;3.05;;;29.10;56.50;;;;;;5019430;28;20061;-73
2023/09/12 12:25:15;;;;;;;7.72;2.53;;;29.10;55.80;;;;;;5016624;28;20424;-70
2023/09/12 12:27:45;;;;;;;7.93;2.97;;;29.10;55.80;;;;;;5017925;28;20033;-69
2023/09/12 12:30:13;;;;;;;5.05;2.90;;;29.30;58.50;;;;;;5015320;28;20026;-68
2023/09/12 12:32:43;;;;;;;3.70;2.72;;;29.50;58.60;;;;;;5013435;28;20088;-71
2023/09/12 12:35:16;;;;;;;4.30;2.70;;;29.60;56.00;;;;;;5012598;28;20113;-70
2023/09/12 12:37:42;;;;;;;11.63;2.80;;;29.60;56.70;;;;;;5013718;28;20036;-69
2023/09/12 12:40:11;;;;;;;;;;;29.70;54.40;;;;;;5016202;28;20025;-68
2023/09/12 12:42:41;;;;;;;3.67;3.17;;;29.80;55.40;;;;;;5005653;28;19929;-69
2023/09/12 12:45:15;;;;;;;3.58;2.60;;;29.90;54.30;;;;;;5013960;28;20050;-71
2023/09/12 12:47:41;;;;;;;3.83;2.75;;;30.00;52.20;;;;;;5015088;28;20561;-67